Terminal Aerodrome Forecast
Issued by NWS Paducah, KY

Home | Current Version | Previous Version | Text Only | Print | Product List | Glossary On
Versions: 1 2 3 4 5 6 7 8 9 10 11 12 13 14 15 16
000
FTUS43 KPAH 291120
TAFPAH
TAF
KPAH 291120Z 2912/3012 33006KT P6SM FEW060
     FM291400 32010KT P6SM VCSH BKN025 OVC060
     FM292000 34012KT P6SM VCSH SCT025 BKN060
     FM292230 33013KT P6SM BKN045=

USA.gov is the U.S. government's official web portal to all federal, state and local government web resources and services.